Raugust, Washington
Current Conditions -  °F | °C
As of 10:52 PM on Tuesday 21 Oct 2014 (Local Time) from KMWH Reporting Station
Clear Clear  
Wind Chill:   Ceiling: Unl
Heat Index:   Visibility: 10mi
Dew Point:   Wind: 7mph
Humidity: 83%   Direction: 140°SE
Pressure: 29.92"   Gusts: NA
Location:  47.1758°N, 119.289°W
Report Text: KMWH 220552Z AUTO 14006KT 10SM CLR 08/06 A2992 RMK AO2 SLP134 T00830056 10178 20083 57002 TSNO
Loading
Personal Weather Stations






























Interactive Weather Map
Tropical Storm Tracking
New forecast layout! Learn more

10-Day Weather Forecast

Advertisements
Track Severe Weather on mobile